createdAt,value
2017-06-03T00:02:00.559Z,18.00
2017-06-03T00:04:29.377Z,18.20
2017-06-03T00:06:58.211Z,18.20
2017-06-03T00:09:27.062Z,18.30
2017-06-03T00:11:55.875Z,18.40
2017-06-03T00:14:24.723Z,18.50
2017-06-03T00:16:55.867Z,18.40
2017-06-03T00:19:24.723Z,17.90
2017-06-03T00:21:53.547Z,17.60
2017-06-03T00:24:22.383Z,17.50
2017-06-03T00:26:51.875Z,17.60
2017-06-03T00:29:20.731Z,17.60
2017-06-03T00:31:49.543Z,17.30
2017-06-03T00:34:18.383Z,17.40
2017-06-03T00:36:47.202Z,17.50
2017-06-03T00:39:16.123Z,17.70
2017-06-03T00:41:46.826Z,17.90
2017-06-03T00:44:15.651Z,18.00
2017-06-03T00:46:44.459Z,18.10
2017-06-03T00:49:13.307Z,18.00
2017-06-03T00:51:42.127Z,17.90
2017-06-03T00:54:10.939Z,17.80
2017-06-03T00:56:39.787Z,17.80
2017-06-03T00:59:08.806Z,17.80
2017-06-03T01:01:37.626Z,17.90
2017-06-03T01:04:06.474Z,17.90
2017-06-03T01:06:35.286Z,17.80
2017-06-03T01:09:04.130Z,17.70
2017-06-03T01:11:32.307Z,17.70
2017-06-03T01:14:01.143Z,17.50
2017-06-03T01:16:29.976Z,17.70
2017-06-03T01:18:58.794Z,17.80
2017-06-03T01:21:27.607Z,17.70
2017-06-03T01:23:56.422Z,17.80
2017-06-03T01:26:24.514Z,17.80
2017-06-03T01:28:53.265Z,17.70
2017-06-03T01:31:22.037Z,17.70
2017-06-03T01:33:50.838Z,17.60
2017-06-03T01:36:19.629Z,17.40
2017-06-03T01:38:52.823Z,17.20
2017-06-03T01:41:20.825Z,17.10
2017-06-03T01:43:49.601Z,16.70
2017-06-03T01:46:20.351Z,16.60
2017-06-03T01:48:49.141Z,16.40
2017-06-03T01:51:17.917Z,16.10
2017-06-03T01:53:46.724Z,16.10
2017-06-03T01:56:15.493Z,16.20
2017-06-03T01:58:44.264Z,16.30
2017-06-03T02:01:13.073Z,16.40
2017-06-03T02:03:41.072Z,16.40
2017-06-03T02:06:09.850Z,16.60
2017-06-03T02:08:38.644Z,16.70
2017-06-03T02:11:07.417Z,16.80
2017-06-03T02:13:36.189Z,17.00
2017-06-03T02:16:04.969Z,17.20
2017-06-03T02:18:33.732Z,17.30
2017-06-03T02:21:02.505Z,17.40
2017-06-03T02:23:31.305Z,17.30
2017-06-03T02:26:00.989Z,17.20
2017-06-03T02:28:29.760Z,17.20
2017-06-03T02:30:58.565Z,17.10
2017-06-03T02:33:27.372Z,17.20
2017-06-03T02:35:56.156Z,17.30
2017-06-03T02:38:24.952Z,17.30
2017-06-03T02:40:54.652Z,17.20
2017-06-03T02:43:26.465Z,17.10
2017-06-03T02:45:55.240Z,17.00
2017-06-03T02:48:24.020Z,17.10
2017-06-03T02:50:52.808Z,17.10
2017-06-03T02:53:21.572Z,17.10
2017-06-03T02:55:50.365Z,17.00
2017-06-03T02:58:19.168Z,17.00
2017-06-03T03:00:47.940Z,17.00
2017-06-03T03:03:16.716Z,17.10
2017-06-03T03:05:45.531Z,17.20
2017-06-03T03:08:14.356Z,17.30
2017-06-03T03:10:43.456Z,17.20
2017-06-03T03:13:12.255Z,17.00
2017-06-03T03:15:41.028Z,16.90
2017-06-03T03:18:09.800Z,16.80
2017-06-03T03:20:38.576Z,16.60
2017-06-03T03:23:07.363Z,16.50
2017-06-03T03:25:36.128Z,16.30
2017-06-03T03:28:04.904Z,16.40
2017-06-03T03:30:33.680Z,16.30
2017-06-03T03:33:02.457Z,16.30
2017-06-03T03:35:31.255Z,16.20
2017-06-03T03:38:00.024Z,16.20
2017-06-03T03:40:28.851Z,16.20
2017-06-03T03:42:57.683Z,16.30
2017-06-03T03:45:26.487Z,16.30
2017-06-03T03:47:55.255Z,16.30
2017-06-03T03:50:24.144Z,16.30
2017-06-03T03:52:52.919Z,16.40
2017-06-03T03:55:21.700Z,16.40
2017-06-03T03:57:50.603Z,16.20
2017-06-03T04:00:19.387Z,16.10
2017-06-03T04:02:48.267Z,16.00
2017-06-03T04:05:17.184Z,16.10
2017-06-03T04:07:46.069Z,16.10
2017-06-03T04:10:14.855Z,16.20
2017-06-03T04:12:43.679Z,16.20
2017-06-03T04:15:12.455Z,16.40
2017-06-03T04:17:41.313Z,16.30
2017-06-03T04:20:10.106Z,16.20
2017-06-03T04:22:38.891Z,16.10
2017-06-03T04:25:07.707Z,16.30
2017-06-03T04:27:36.550Z,16.30
2017-06-03T04:30:05.299Z,16.30
2017-06-03T04:32:34.063Z,16.30
2017-06-03T04:35:02.863Z,16.30
2017-06-03T04:37:31.635Z,16.60
2017-06-03T04:40:00.899Z,16.60
2017-06-03T04:42:29.663Z,16.80
2017-06-03T04:44:58.430Z,16.80
2017-06-03T04:47:27.271Z,16.90
2017-06-03T04:49:56.172Z,16.80
2017-06-03T04:52:24.951Z,17.00
2017-06-03T04:54:53.718Z,17.20
2017-06-03T04:57:23.186Z,17.20
2017-06-03T04:59:52.034Z,17.30
2017-06-03T05:02:20.819Z,17.30
2017-06-03T05:04:49.710Z,17.40
2017-06-03T05:07:18.482Z,17.60
2017-06-03T05:09:47.282Z,17.70
2017-06-03T05:12:16.174Z,17.80
2017-06-03T05:14:45.375Z,17.90
2017-06-03T05:17:14.106Z,18.10
2017-06-03T05:19:42.990Z,18.30
2017-06-03T05:22:11.787Z,18.40
2017-06-03T05:24:40.626Z,18.50
2017-06-03T05:27:09.438Z,18.60
2017-06-03T05:29:38.247Z,18.70
2017-06-03T05:32:07.006Z,18.80
2017-06-03T05:34:35.798Z,19.00
2017-06-03T05:37:04.612Z,18.90
2017-06-03T05:39:33.378Z,18.80
2017-06-03T05:42:02.162Z,19.00
2017-06-03T05:44:30.933Z,19.00
2017-06-03T05:46:59.706Z,19.00
2017-06-03T05:49:28.495Z,19.00
2017-06-03T05:51:57.286Z,19.20
2017-06-03T05:54:26.050Z,19.30
2017-06-03T05:56:54.961Z,19.40
2017-06-03T05:59:23.762Z,19.40
2017-06-03T06:01:52.642Z,19.30
2017-06-03T06:04:21.429Z,19.50
2017-06-03T06:06:50.206Z,19.60
2017-06-03T06:09:19.626Z,19.70
2017-06-03T06:11:48.404Z,19.80
2017-06-03T06:14:17.170Z,19.80
2017-06-03T06:16:45.933Z,19.90
2017-06-03T06:19:14.705Z,20.10
2017-06-03T06:21:44.030Z,20.20
2017-06-03T06:24:13.673Z,20.20
2017-06-03T06:26:42.463Z,20.30
2017-06-03T06:29:11.253Z,20.50
2017-06-03T06:31:40.013Z,20.60
2017-06-03T06:34:08.826Z,20.70
2017-06-03T06:36:37.593Z,21.00
2017-06-03T06:39:06.357Z,21.00
2017-06-03T06:41:35.142Z,21.00
2017-06-03T06:44:03.994Z,21.00
2017-06-03T06:46:32.865Z,21.10
2017-06-03T06:49:01.653Z,21.20
2017-06-03T06:51:30.441Z,21.30
2017-06-03T06:53:59.321Z,21.30
2017-06-03T06:56:28.121Z,21.30
2017-06-03T06:58:56.962Z,21.40
2017-06-03T07:01:25.801Z,21.50
2017-06-03T07:03:54.676Z,21.70
2017-06-03T07:06:23.441Z,21.80
2017-06-03T07:08:52.261Z,21.90
2017-06-03T07:11:21.145Z,21.90
2017-06-03T07:13:49.908Z,22.10
2017-06-03T07:16:18.668Z,22.00
2017-06-03T07:18:47.437Z,21.90
2017-06-03T07:21:16.329Z,22.10
2017-06-03T07:23:45.088Z,22.40
2017-06-03T07:26:13.980Z,22.30
2017-06-03T07:28:42.769Z,22.50
2017-06-03T07:31:11.536Z,22.50
2017-06-03T07:33:40.364Z,22.70
2017-06-03T07:36:14.832Z,22.80
2017-06-03T07:38:49.289Z,22.90
2017-06-03T07:41:23.605Z,23.00
2017-06-03T07:43:57.872Z,23.00
2017-06-03T07:46:32.232Z,23.10
2017-06-03T07:49:06.592Z,22.90
2017-06-03T07:51:40.900Z,23.10
2017-06-03T07:54:15.296Z,23.20
2017-06-03T07:56:49.752Z,23.30
2017-06-03T07:59:24.132Z,23.50
2017-06-03T08:01:58.656Z,23.60
2017-06-03T08:04:32.916Z,23.40
2017-06-03T08:07:07.296Z,23.50
2017-06-03T08:09:41.884Z,23.60
2017-06-03T08:12:16.156Z,23.70
2017-06-03T08:14:50.462Z,23.80
2017-06-03T08:17:24.740Z,23.70
2017-06-03T08:19:59.099Z,23.80
2017-06-03T08:22:33.528Z,23.90
2017-06-03T08:25:07.852Z,24.10
2017-06-03T08:27:42.288Z,24.00
2017-06-03T08:30:16.712Z,24.30
2017-06-03T08:32:51.246Z,24.70
2017-06-03T08:35:25.791Z,24.50
2017-06-03T08:38:00.179Z,24.60
2017-06-03T08:40:34.636Z,24.60
2017-06-03T08:43:08.151Z,24.60
2017-06-03T08:45:42.484Z,24.70
2017-06-03T08:48:16.928Z,24.80
2017-06-03T08:50:51.480Z,24.80
2017-06-03T08:53:25.811Z,24.80
2017-06-03T08:56:00.236Z,25.00
2017-06-03T08:58:34.796Z,25.10
2017-06-03T09:01:09.111Z,25.00
2017-06-03T09:03:43.407Z,25.10
2017-06-03T09:06:17.751Z,25.10
2017-06-03T09:08:52.243Z,25.40
2017-06-03T09:11:26.584Z,25.50
2017-06-03T09:14:01.031Z,25.60
2017-06-03T09:16:35.408Z,25.60
2017-06-03T09:19:09.719Z,25.80
2017-06-03T09:21:44.035Z,25.80
2017-06-03T09:24:18.371Z,26.10
2017-06-03T09:26:54.603Z,26.00
2017-06-03T09:29:28.911Z,26.00
2017-06-03T09:32:03.259Z,26.00
2017-06-03T09:34:37.543Z,25.80
2017-06-03T09:37:11.872Z,25.80
2017-06-03T09:39:46.199Z,25.90
2017-06-03T09:42:20.555Z,25.80
2017-06-03T09:44:54.896Z,25.60
2017-06-03T09:47:29.307Z,25.90
2017-06-03T09:50:03.575Z,26.20
2017-06-03T09:52:37.851Z,26.30
2017-06-03T09:55:12.195Z,26.20
2017-06-03T09:57:46.527Z,26.10
2017-06-03T10:00:20.847Z,26.00
2017-06-03T10:02:55.139Z,26.30
2017-06-03T10:05:29.486Z,26.40
2017-06-03T10:08:03.775Z,26.00
2017-06-03T10:10:38.047Z,26.10
2017-06-03T10:13:12.430Z,26.50
2017-06-03T10:15:46.715Z,26.50
2017-06-03T10:18:21.046Z,26.50
2017-06-03T10:20:55.464Z,26.50
2017-06-03T10:23:29.803Z,26.70
2017-06-03T10:26:04.147Z,27.00
2017-06-03T10:28:38.526Z,26.70
2017-06-03T10:31:12.858Z,27.00
2017-06-03T10:33:47.214Z,26.80
2017-06-03T10:36:21.458Z,26.50
2017-06-03T10:38:55.751Z,26.50
2017-06-03T10:41:30.066Z,26.80
2017-06-03T10:44:04.419Z,26.90
2017-06-03T10:46:38.731Z,27.00
2017-06-03T10:49:13.078Z,27.40
2017-06-03T10:51:47.391Z,27.50
2017-06-03T10:54:21.678Z,27.30
2017-06-03T10:56:56.926Z,27.40
2017-06-03T10:59:31.382Z,27.30
2017-06-03T11:02:05.666Z,27.10
2017-06-03T11:04:39.926Z,27.00
2017-06-03T11:07:14.214Z,27.00
2017-06-03T11:09:48.550Z,27.10
2017-06-03T11:12:22.846Z,26.80
2017-06-03T11:14:57.206Z,26.90
2017-06-03T11:17:31.498Z,27.30
2017-06-03T11:20:05.906Z,27.50
2017-06-03T11:22:40.218Z,27.60
2017-06-03T11:25:14.578Z,27.50
2017-06-03T11:27:48.958Z,28.00
2017-06-03T11:30:23.358Z,27.90
2017-06-03T11:32:57.690Z,28.30
2017-06-03T11:35:32.018Z,27.90
2017-06-03T11:38:06.322Z,28.00
2017-06-03T11:40:40.630Z,28.10
2017-06-03T11:43:15.002Z,28.10
2017-06-03T11:45:49.286Z,28.20
2017-06-03T11:48:23.685Z,28.00
2017-06-03T11:50:58.026Z,27.50
2017-06-03T11:53:32.329Z,27.50
2017-06-03T11:56:06.634Z,27.40
2017-06-03T11:58:40.873Z,27.80
2017-06-03T12:01:15.194Z,28.10
2017-06-03T12:03:49.497Z,28.20
2017-06-03T12:06:23.830Z,28.10
2017-06-03T12:08:58.110Z,28.10
2017-06-03T12:11:32.409Z,27.60
2017-06-03T12:14:06.774Z,27.80
2017-06-03T12:16:41.058Z,27.60
2017-06-03T12:19:15.358Z,27.50
2017-06-03T12:21:49.730Z,27.50
2017-06-03T12:24:24.162Z,28.10
2017-06-03T12:26:58.474Z,28.40
2017-06-03T12:29:32.781Z,28.80
2017-06-03T12:32:07.054Z,28.80
2017-06-03T12:34:41.414Z,28.30
2017-06-03T12:37:16.638Z,28.00
2017-06-03T12:39:51.017Z,27.70
2017-06-03T12:42:25.374Z,27.50
2017-06-03T12:44:59.605Z,27.40
2017-06-03T12:47:33.861Z,27.30
2017-06-03T12:50:08.145Z,27.10
2017-06-03T12:52:42.469Z,26.90
2017-06-03T12:55:16.773Z,26.90
2017-06-03T12:57:51.101Z,26.90
2017-06-03T13:00:25.409Z,26.90
2017-06-03T13:02:59.734Z,26.90
2017-06-03T13:05:34.145Z,27.00
2017-06-03T13:08:08.525Z,26.80
2017-06-03T13:10:42.809Z,26.00
2017-06-03T13:13:17.261Z,26.40
2017-06-03T13:15:51.633Z,26.70
2017-06-03T13:18:25.969Z,27.00
2017-06-03T13:21:00.213Z,27.10
2017-06-03T13:23:34.533Z,26.90
2017-06-03T13:26:08.897Z,26.20
2017-06-03T13:28:43.213Z,26.00
2017-06-03T13:31:17.629Z,26.00
2017-06-03T13:33:52.077Z,26.30
2017-06-03T13:36:26.463Z,26.40
2017-06-03T13:39:00.921Z,26.30
2017-06-03T13:41:35.281Z,25.80
2017-06-03T13:44:09.573Z,25.50
2017-06-03T13:46:43.873Z,25.10
2017-06-03T13:49:18.185Z,25.00
2017-06-03T13:51:52.493Z,25.00
2017-06-03T13:54:26.785Z,24.50
2017-06-03T13:57:01.120Z,24.50
2017-06-03T13:59:35.428Z,24.40
2017-06-03T14:02:09.716Z,24.20
2017-06-03T14:04:44.073Z,24.30
2017-06-03T14:07:18.364Z,24.20
2017-06-03T14:09:52.733Z,24.00
2017-06-03T14:12:27.007Z,24.30
2017-06-03T14:15:01.313Z,24.50
2017-06-03T14:17:35.621Z,24.90
2017-06-03T14:20:09.989Z,25.20
2017-06-03T14:22:44.249Z,25.30
2017-06-03T14:25:18.576Z,25.40
2017-06-03T14:27:52.912Z,25.20
2017-06-03T14:30:27.256Z,25.30
2017-06-03T14:33:01.544Z,25.60
2017-06-03T14:35:35.805Z,25.50
2017-06-03T14:38:10.176Z,25.40
2017-06-03T14:40:44.444Z,25.70
2017-06-03T14:43:18.814Z,25.70
2017-06-03T14:45:53.140Z,26.10
2017-06-03T14:48:27.428Z,26.10
2017-06-03T14:51:01.892Z,26.40
2017-06-03T14:53:36.334Z,26.80
2017-06-03T14:56:10.756Z,26.90
2017-06-03T14:58:45.149Z,27.10
2017-06-03T15:01:19.496Z,26.90
2017-06-03T15:03:54.715Z,26.80
2017-06-03T15:06:29.151Z,26.90
2017-06-03T15:09:03.536Z,26.90
2017-06-03T15:11:37.860Z,26.80
2017-06-03T15:14:12.171Z,26.90
2017-06-03T15:16:46.472Z,26.90
2017-06-03T15:19:20.846Z,26.80
2017-06-03T15:21:55.224Z,27.00
2017-06-03T15:24:29.544Z,27.20
2017-06-03T15:27:03.948Z,27.20
2017-06-03T15:29:38.300Z,27.10
2017-06-03T15:32:12.831Z,27.30
2017-06-03T15:34:47.259Z,27.30
2017-06-03T15:37:21.732Z,27.40
2017-06-03T15:39:56.147Z,27.50
2017-06-03T15:42:30.487Z,27.30
2017-06-03T15:45:04.879Z,27.30
2017-06-03T15:47:39.207Z,27.50
2017-06-03T15:50:13.495Z,27.50
2017-06-03T15:52:42.274Z,27.60
2017-06-03T15:55:11.043Z,27.50
2017-06-03T15:57:39.807Z,27.60
2017-06-03T16:00:08.595Z,27.70
2017-06-03T16:02:37.355Z,27.70
2017-06-03T16:05:06.127Z,27.80
2017-06-03T16:07:34.895Z,27.80
2017-06-03T16:10:03.660Z,27.90
2017-06-03T16:12:32.423Z,27.90
2017-06-03T16:15:01.206Z,27.90
2017-06-03T16:17:29.987Z,27.80
2017-06-03T16:19:58.758Z,27.80
2017-06-03T16:22:27.534Z,27.80
2017-06-03T16:24:56.294Z,27.80
2017-06-03T16:27:25.059Z,27.70
2017-06-03T16:29:53.827Z,27.60
2017-06-03T16:32:22.591Z,27.50
2017-06-03T16:34:51.358Z,27.40
2017-06-03T16:37:20.142Z,27.30
2017-06-03T16:39:48.902Z,27.20
2017-06-03T16:42:17.666Z,27.30
2017-06-03T16:44:46.438Z,27.30
2017-06-03T16:47:15.202Z,27.30
2017-06-03T16:49:43.970Z,27.20
2017-06-03T16:52:12.758Z,27.10
2017-06-03T16:54:41.522Z,27.20
2017-06-03T16:57:10.282Z,27.20
2017-06-03T16:59:39.074Z,27.20
2017-06-03T17:02:07.834Z,27.30
2017-06-03T17:04:36.598Z,27.20
2017-06-03T17:07:05.386Z,27.30
2017-06-03T17:09:34.146Z,27.20
2017-06-03T17:12:02.906Z,27.10
2017-06-03T17:14:31.674Z,27.00
2017-06-03T17:17:00.434Z,27.00
2017-06-03T17:19:29.198Z,27.00
2017-06-03T17:21:57.982Z,26.90
2017-06-03T17:24:26.741Z,26.90
2017-06-03T17:26:55.509Z,26.80
2017-06-03T17:29:24.277Z,26.60
2017-06-03T17:31:53.038Z,26.60
2017-06-03T17:34:21.797Z,26.40
2017-06-03T17:36:50.586Z,26.40
2017-06-03T17:39:19.346Z,26.30
2017-06-03T17:41:48.110Z,26.20
2017-06-03T17:44:16.894Z,26.10
2017-06-03T17:46:45.653Z,25.90
2017-06-03T17:49:14.413Z,25.70
2017-06-03T17:51:43.185Z,25.60
2017-06-03T17:54:11.945Z,25.60
2017-06-03T17:56:40.717Z,25.40
2017-06-03T17:59:09.489Z,25.30
2017-06-03T18:01:38.305Z,25.30
2017-06-03T18:04:07.041Z,25.10
2017-06-03T18:06:35.835Z,25.00
2017-06-03T18:09:04.594Z,24.80
2017-06-03T18:11:33.357Z,24.70
2017-06-03T18:14:02.161Z,24.60
2017-06-03T18:16:30.921Z,24.60
2017-06-03T18:18:59.685Z,24.40
2017-06-03T18:21:28.480Z,24.30
2017-06-03T18:23:57.237Z,24.10
2017-06-03T18:26:25.997Z,24.00
2017-06-03T18:28:54.765Z,24.00
2017-06-03T18:31:23.529Z,24.00
2017-06-03T18:33:52.289Z,24.00
2017-06-03T18:36:21.397Z,24.00
2017-06-03T18:38:50.165Z,23.80
2017-06-03T18:41:18.937Z,23.80
2017-06-03T18:43:47.735Z,23.80
2017-06-03T18:46:16.533Z,23.70
2017-06-03T18:48:45.292Z,23.60
2017-06-03T18:51:15.001Z,23.60
2017-06-03T18:53:43.761Z,23.40
2017-06-03T18:56:18.277Z,23.50
2017-06-03T18:58:52.657Z,23.30
2017-06-03T19:01:27.003Z,23.20
2017-06-03T19:04:01.420Z,23.30
2017-06-03T19:06:35.897Z,23.20
2017-06-03T19:09:10.252Z,23.10
2017-06-03T19:11:44.692Z,23.10
2017-06-03T19:14:19.161Z,22.80
2017-06-03T19:16:53.421Z,22.90
2017-06-03T19:19:27.900Z,22.90
2017-06-03T19:27:19.828Z,22.80
2017-06-03T19:29:54.209Z,22.80
2017-06-03T19:32:22.984Z,22.80
2017-06-03T19:34:51.744Z,22.80
2017-06-03T19:37:20.548Z,22.70
2017-06-03T19:39:49.309Z,22.60
2017-06-03T19:42:21.272Z,22.60
2017-06-03T19:44:50.048Z,22.60
2017-06-03T19:47:18.816Z,22.50
2017-06-03T19:49:47.584Z,22.50
2017-06-03T19:52:16.352Z,22.40
2017-06-03T19:54:45.125Z,22.10
2017-06-03T19:57:13.900Z,21.80
2017-06-03T19:59:42.709Z,21.80
2017-06-03T20:02:11.484Z,21.80
2017-06-03T20:04:40.256Z,22.00
2017-06-03T20:07:09.036Z,22.10
2017-06-03T20:09:37.048Z,22.10
2017-06-03T20:12:05.816Z,22.20
2017-06-03T20:14:34.596Z,22.10
2017-06-03T20:17:03.368Z,22.10
2017-06-03T20:19:31.369Z,22.10
2017-06-03T20:22:00.160Z,22.00
2017-06-03T20:24:28.933Z,21.90
2017-06-03T20:27:00.764Z,22.00
2017-06-03T20:29:31.424Z,22.00
2017-06-03T20:32:00.212Z,22.00
2017-06-03T20:34:29.022Z,21.90
2017-06-03T20:36:57.763Z,21.90
2017-06-03T20:39:26.557Z,21.90
2017-06-03T20:41:55.328Z,21.90
2017-06-03T20:44:24.087Z,21.80
2017-06-03T20:46:52.871Z,21.70
2017-06-03T20:49:21.635Z,21.70
2017-06-03T20:51:50.404Z,21.70
2017-06-03T20:54:19.183Z,21.70
2017-06-03T20:56:49.879Z,21.70
2017-06-03T20:59:19.595Z,21.60
2017-06-03T21:01:48.368Z,21.60
2017-06-03T21:04:21.083Z,21.50
2017-06-03T21:06:49.855Z,21.50
2017-06-03T21:09:18.624Z,21.50
2017-06-03T21:11:47.420Z,21.50
2017-06-03T21:14:16.183Z,21.20
2017-06-03T21:16:50.788Z,21.30
2017-06-03T21:19:19.555Z,21.20
2017-06-03T21:21:48.327Z,21.30
2017-06-03T21:24:17.131Z,21.40
2017-06-03T21:26:45.923Z,21.50
2017-06-03T21:29:14.683Z,21.60
2017-06-03T21:31:43.462Z,21.50
2017-06-03T21:34:12.219Z,21.50
2017-06-03T21:36:40.987Z,21.40
2017-06-03T21:39:09.779Z,21.50
2017-06-03T21:41:38.555Z,21.50
2017-06-03T21:44:07.331Z,20.80
2017-06-03T21:46:38.033Z,20.40
2017-06-03T21:49:08.767Z,20.30
2017-06-03T21:51:37.568Z,20.30
2017-06-03T21:54:06.335Z,20.40
2017-06-03T21:56:37.075Z,20.30
2017-06-03T21:59:05.850Z,20.30
2017-06-03T22:01:34.643Z,20.50
2017-06-03T22:04:04.399Z,20.50
2017-06-03T22:06:34.151Z,20.50
2017-06-03T22:09:02.915Z,20.70
2017-06-03T22:11:32.670Z,20.70
2017-06-03T22:14:01.448Z,20.70
2017-06-03T22:16:30.223Z,20.80
2017-06-03T22:18:59.951Z,20.80
2017-06-03T22:21:28.715Z,20.60
2017-06-03T22:23:57.474Z,20.40
2017-06-03T22:26:26.275Z,20.40
2017-06-03T22:28:55.042Z,20.50
2017-06-03T22:31:23.819Z,20.60
2017-06-03T22:33:52.606Z,20.70
2017-06-03T22:36:21.414Z,20.60
2017-06-03T22:38:50.303Z,20.40
2017-06-03T22:41:19.199Z,20.10
2017-06-03T22:43:47.962Z,19.80
2017-06-03T22:46:16.731Z,19.40
2017-06-03T22:48:45.510Z,19.50
2017-06-03T22:51:14.278Z,19.40
2017-06-03T22:53:43.046Z,19.20
2017-06-03T22:56:11.843Z,19.00
2017-06-03T22:58:40.610Z,18.90
2017-06-03T23:01:09.390Z,18.80
2017-06-03T23:03:39.361Z,18.60
2017-06-03T23:06:08.139Z,18.80
2017-06-03T23:08:36.923Z,18.50
2017-06-03T23:11:05.706Z,18.70
2017-06-03T23:13:34.482Z,18.50
2017-06-03T23:16:03.258Z,18.40
2017-06-03T23:18:32.051Z,18.40
2017-06-03T23:21:00.822Z,18.40
2017-06-03T23:23:29.598Z,18.60
2017-06-03T23:25:58.389Z,18.50
2017-06-03T23:28:27.164Z,18.40
2017-06-03T23:30:55.938Z,18.20
2017-06-03T23:33:24.758Z,18.40
2017-06-03T23:35:53.526Z,18.60
2017-06-03T23:38:22.298Z,18.70
2017-06-03T23:40:51.082Z,18.70
2017-06-03T23:43:19.890Z,18.70
2017-06-03T23:45:48.658Z,18.70
2017-06-03T23:48:16.670Z,18.70
2017-06-03T23:50:45.441Z,18.80
2017-06-03T23:53:14.221Z,18.80
2017-06-03T23:55:43.017Z,18.70
2017-06-03T23:58:11.785Z,18.70
